Llandeilo, United Kingdom
Current Conditions -  °F | °C
As of 5:50 AM on Saturday 01 Nov 2014 (Local Time) from EGOP Reporting Station
Scattered Clouds Scattered Clouds  
Wind Chill: 57°   Ceiling: Unl
Heat Index: 57°   Visibility: 6mi
Dew Point: 50°   Wind: 23mph
Humidity: 77%   Direction: 230°SW
Pressure: 29.91"   Gusts: NA
Location:  51.88°N, 3.99°W
Report Text: EGOP 010550Z AUTO 23020KT 9999 // FEW021/// SCT050/// 14/10 Q1013
Loading
Personal Weather Stations






























Interactive Weather Map
Tropical Storm Tracking
New forecast layout! Learn more

10-Day Weather Forecast

Advertisements
Track Severe Weather on mobile